ENOA

Oseberg A Platform Heliport

Norway
METAR ENOA 242350Z 23008KT 9999 BKN030 06/04 Q0999 W///S5
Observed Flight Rules
Apr-24 @ 23:50 UTC (42 minutes ago) Marginal Visual Flight Rules
Wind Visibility Clouds
230° at 8 knots 10,000+ meters
  • Broken at 3,000' AGL
Temperatures Readings
Current 6°C / 43°F
Dewpoint 4°C / 39°F
Humidity 87%
Altimeter 29.5" Hg
Pressure 999 hPa
Elevation 5
METAR ENOA 242350Z 23008KT 9999 BKN030 06/04 Q0999 W///S5
Observed Flight Rules
Apr-24 @ 23:50 UTC
(42 minutes ago)
MVFR
Wind Visibility
230° at 8 knots 10,000+ meters
Clouds
  • Broken at 3,000' AGL
Temperature Dewpoint
6°C / 43°F 4°C / 39°F
Humidity Altimeter Pressure
87% 29.5" Hg 999 hPa